sensor_id;sensor_type;location;lat;lon;timestamp;P1;durP1;ratioP1;P2;durP2;ratioP2
69951;SDS011;60406;48.408;13.392;2023-04-24T00:03:40;4.78;;;2.42;;
69951;SDS011;60406;48.408;13.392;2023-04-24T00:08:42;3.70;;;2.55;;
69951;SDS011;60406;48.408;13.392;2023-04-24T00:13:42;4.43;;;2.72;;
69951;SDS011;60406;48.408;13.392;2023-04-24T00:18:43;5.88;;;2.60;;
69951;SDS011;60406;48.408;13.392;2023-04-24T00:23:44;4.63;;;2.85;;
69951;SDS011;60406;48.408;13.392;2023-04-24T00:28:45;5.35;;;2.30;;
69951;SDS011;60406;48.408;13.392;2023-04-24T00:33:46;3.88;;;2.40;;
69951;SDS011;60406;48.408;13.392;2023-04-24T00:38:47;8.00;;;3.58;;
69951;SDS011;60406;48.408;13.392;2023-04-24T00:43:48;2.13;;;2.00;;
69951;SDS011;60406;48.408;13.392;2023-04-24T00:48:48;2.55;;;1.92;;
69951;SDS011;60406;48.408;13.392;2023-04-24T00:53:50;3.50;;;2.75;;
69951;SDS011;60406;48.408;13.392;2023-04-24T00:58:51;6.38;;;3.20;;
69951;SDS011;60406;48.408;13.392;2023-04-24T01:03:52;3.72;;;2.42;;
69951;SDS011;60406;48.408;13.392;2023-04-24T01:08:53;5.32;;;2.92;;
69951;SDS011;60406;48.408;13.392;2023-04-24T01:13:54;4.88;;;2.60;;
69951;SDS011;60406;48.408;13.392;2023-04-24T01:18:55;5.43;;;3.72;;
69951;SDS011;60406;48.408;13.392;2023-04-24T01:23:56;3.50;;;2.80;;
69951;SDS011;60406;48.408;13.392;2023-04-24T01:28:57;3.47;;;2.72;;
69951;SDS011;60406;48.408;13.392;2023-04-24T01:33:58;2.78;;;2.28;;
69951;SDS011;60406;48.408;13.392;2023-04-24T01:38:59;5.28;;;2.85;;
69951;SDS011;60406;48.408;13.392;2023-04-24T01:44:00;3.85;;;2.63;;
69951;SDS011;60406;48.408;13.392;2023-04-24T01:49:01;3.67;;;3.00;;
69951;SDS011;60406;48.408;13.392;2023-04-24T01:54:02;3.50;;;3.10;;
69951;SDS011;60406;48.408;13.392;2023-04-24T01:59:03;5.90;;;3.33;;
69951;SDS011;60406;48.408;13.392;2023-04-24T02:04:05;4.05;;;3.42;;
69951;SDS011;60406;48.408;13.392;2023-04-24T02:09:06;5.57;;;3.53;;
69951;SDS011;60406;48.408;13.392;2023-04-24T02:14:07;8.57;;;4.40;;
69951;SDS011;60406;48.408;13.392;2023-04-24T02:19:08;6.93;;;4.78;;
69951;SDS011;60406;48.408;13.392;2023-04-24T02:24:08;9.25;;;5.15;;
69951;SDS011;60406;48.408;13.392;2023-04-24T02:29:09;7.97;;;6.15;;
69951;SDS011;60406;48.408;13.392;2023-04-24T02:34:10;9.07;;;6.13;;
69951;SDS011;60406;48.408;13.392;2023-04-24T02:39:11;9.15;;;7.20;;
69951;SDS011;60406;48.408;13.392;2023-04-24T02:44:12;12.27;;;8.27;;
69951;SDS011;60406;48.408;13.392;2023-04-24T02:49:13;8.70;;;7.10;;
69951;SDS011;60406;48.408;13.392;2023-04-24T02:54:14;9.15;;;7.45;;
69951;SDS011;60406;48.408;13.392;2023-04-24T02:59:14;8.73;;;6.82;;
69951;SDS011;60406;48.408;13.392;2023-04-24T03:04:15;11.18;;;8.30;;
69951;SDS011;60406;48.408;13.392;2023-04-24T03:09:16;8.35;;;6.90;;
69951;SDS011;60406;48.408;13.392;2023-04-24T03:14:17;9.15;;;8.15;;
69951;SDS011;60406;48.408;13.392;2023-04-24T03:19:18;10.40;;;6.50;;
69951;SDS011;60406;48.408;13.392;2023-04-24T03:24:19;8.68;;;6.97;;
69951;SDS011;60406;48.408;13.392;2023-04-24T03:29:20;7.53;;;6.65;;
69951;SDS011;60406;48.408;13.392;2023-04-24T03:34:20;9.23;;;6.45;;
69951;SDS011;60406;48.408;13.392;2023-04-24T03:39:21;7.03;;;5.40;;
69951;SDS011;60406;48.408;13.392;2023-04-24T03:44:22;5.80;;;5.03;;
69951;SDS011;60406;48.408;13.392;2023-04-24T03:49:23;6.63;;;5.93;;
69951;SDS011;60406;48.408;13.392;2023-04-24T03:54:24;8.00;;;6.72;;
69951;SDS011;60406;48.408;13.392;2023-04-24T03:59:25;8.18;;;5.90;;
69951;SDS011;60406;48.408;13.392;2023-04-24T04:04:26;7.95;;;5.38;;
69951;SDS011;60406;48.408;13.392;2023-04-24T04:09:27;10.07;;;5.47;;
69951;SDS011;60406;48.408;13.392;2023-04-24T04:14:27;7.13;;;5.75;;
69951;SDS011;60406;48.408;13.392;2023-04-24T04:19:28;7.70;;;5.47;;
69951;SDS011;60406;48.408;13.392;2023-04-24T04:24:29;4.25;;;3.35;;
69951;SDS011;60406;48.408;13.392;2023-04-24T04:29:30;3.85;;;2.42;;
69951;SDS011;60406;48.408;13.392;2023-04-24T04:34:31;4.40;;;1.90;;
69951;SDS011;60406;48.408;13.392;2023-04-24T04:39:32;5.70;;;2.20;;
69951;SDS011;60406;48.408;13.392;2023-04-24T04:44:33;2.30;;;2.10;;
69951;SDS011;60406;48.408;13.392;2023-04-24T04:49:34;4.25;;;3.53;;
69951;SDS011;60406;48.408;13.392;2023-04-24T04:54:34;4.65;;;4.03;;
69951;SDS011;60406;48.408;13.392;2023-04-24T04:59:35;6.82;;;5.05;;
69951;SDS011;60406;48.408;13.392;2023-04-24T05:04:36;8.02;;;4.68;;
69951;SDS011;60406;48.408;13.392;2023-04-24T05:09:37;5.28;;;4.03;;
69951;SDS011;60406;48.408;13.392;2023-04-24T05:14:38;8.38;;;6.65;;
69951;SDS011;60406;48.408;13.392;2023-04-24T05:19:39;6.78;;;4.05;;
69951;SDS011;60406;48.408;13.392;2023-04-24T05:24:40;5.22;;;3.33;;
69951;SDS011;60406;48.408;13.392;2023-04-24T05:29:40;4.22;;;2.75;;
69951;SDS011;60406;48.408;13.392;2023-04-24T05:34:42;4.35;;;3.00;;
69951;SDS011;60406;48.408;13.392;2023-04-24T05:39:43;2.85;;;2.55;;
69951;SDS011;60406;48.408;13.392;2023-04-24T05:44:43;3.42;;;2.20;;
69951;SDS011;60406;48.408;13.392;2023-04-24T05:49:44;4.40;;;3.00;;
69951;SDS011;60406;48.408;13.392;2023-04-24T05:54:45;5.75;;;3.10;;
69951;SDS011;60406;48.408;13.392;2023-04-24T05:59:46;3.25;;;2.83;;
69951;SDS011;60406;48.408;13.392;2023-04-24T06:04:47;3.75;;;2.53;;
69951;SDS011;60406;48.408;13.392;2023-04-24T06:09:48;4.53;;;2.33;;
69951;SDS011;60406;48.408;13.392;2023-04-24T06:14:49;5.15;;;2.60;;
69951;SDS011;60406;48.408;13.392;2023-04-24T06:19:49;4.00;;;2.05;;
69951;SDS011;60406;48.408;13.392;2023-04-24T06:24:50;3.80;;;2.03;;
69951;SDS011;60406;48.408;13.392;2023-04-24T06:29:51;3.83;;;2.10;;
69951;SDS011;60406;48.408;13.392;2023-04-24T06:34:52;2.42;;;1.60;;
69951;SDS011;60406;48.408;13.392;2023-04-24T06:39:53;7.65;;;4.20;;
69951;SDS011;60406;48.408;13.392;2023-04-24T06:44:54;3.97;;;2.50;;
69951;SDS011;60406;48.408;13.392;2023-04-24T06:49:55;4.97;;;2.20;;
69951;SDS011;60406;48.408;13.392;2023-04-24T06:55:02;2.20;;;2.00;;
69951;SDS011;60406;48.408;13.392;2023-04-24T07:00:04;3.55;;;2.65;;
69951;SDS011;60406;48.408;13.392;2023-04-24T07:05:06;3.13;;;2.60;;
69951;SDS011;60406;48.408;13.392;2023-04-24T07:10:07;5.30;;;2.42;;
69951;SDS011;60406;48.408;13.392;2023-04-24T07:15:08;3.35;;;3.05;;
69951;SDS011;60406;48.408;13.392;2023-04-24T07:20:10;3.80;;;3.00;;
69951;SDS011;60406;48.408;13.392;2023-04-24T07:25:11;6.68;;;2.92;;
69951;SDS011;60406;48.408;13.392;2023-04-24T07:30:12;4.60;;;3.20;;
69951;SDS011;60406;48.408;13.392;2023-04-24T07:35:13;4.57;;;2.90;;
69951;SDS011;60406;48.408;13.392;2023-04-24T07:40:14;2.95;;;2.65;;
69951;SDS011;60406;48.408;13.392;2023-04-24T07:45:15;5.32;;;2.50;;
69951;SDS011;60406;48.408;13.392;2023-04-24T07:50:15;2.95;;;2.13;;
69951;SDS011;60406;48.408;13.392;2023-04-24T07:55:16;5.00;;;2.05;;
69951;SDS011;60406;48.408;13.392;2023-04-24T08:00:17;3.33;;;1.80;;
69951;SDS011;60406;48.408;13.392;2023-04-24T08:05:18;4.15;;;2.70;;
69951;SDS011;60406;48.408;13.392;2023-04-24T08:10:20;2.58;;;2.05;;
69951;SDS011;60406;48.408;13.392;2023-04-24T08:15:21;0.70;;;0.70;;
69951;SDS011;60406;48.408;13.392;2023-04-24T08:20:22;2.20;;;1.02;;
69951;SDS011;60406;48.408;13.392;2023-04-24T08:25:23;1.50;;;0.70;;
69951;SDS011;60406;48.408;13.392;2023-04-24T08:30:24;0.73;;;0.68;;
69951;SDS011;60406;48.408;13.392;2023-04-24T08:35:25;0.55;;;0.50;;
69951;SDS011;60406;48.408;13.392;2023-04-24T08:40:27;1.55;;;0.60;;
69951;SDS011;60406;48.408;13.392;2023-04-24T08:45:28;2.55;;;0.75;;
69951;SDS011;60406;48.408;13.392;2023-04-24T08:50:29;1.52;;;0.70;;
69951;SDS011;60406;48.408;13.392;2023-04-24T08:55:31;0.60;;;0.60;;
69951;SDS011;60406;48.408;13.392;2023-04-24T09:00:33;1.88;;;1.58;;
69951;SDS011;60406;48.408;13.392;2023-04-24T09:05:34;2.40;;;0.77;;
69951;SDS011;60406;48.408;13.392;2023-04-24T09:10:35;1.70;;;0.88;;
69951;SDS011;60406;48.408;13.392;2023-04-24T09:15:36;2.97;;;0.82;;
69951;SDS011;60406;48.408;13.392;2023-04-24T09:25:58;3.25;;;0.80;;
69951;SDS011;60406;48.408;13.392;2023-04-24T09:31:03;3.40;;;1.27;;
69951;SDS011;60406;48.408;13.392;2023-04-24T09:36:09;1.52;;;0.90;;
69951;SDS011;60406;48.408;13.392;2023-04-24T09:41:10;2.67;;;1.15;;
69951;SDS011;60406;48.408;13.392;2023-04-24T09:46:13;3.47;;;1.20;;
69951;SDS011;60406;48.408;13.392;2023-04-24T09:51:14;1.88;;;1.35;;
69951;SDS011;60406;48.408;13.392;2023-04-24T09:56:15;1.23;;;1.05;;
69951;SDS011;60406;48.408;13.392;2023-04-24T10:01:16;1.30;;;0.82;;
69951;SDS011;60406;48.408;13.392;2023-04-24T10:06:33;1.52;;;0.90;;
69951;SDS011;60406;48.408;13.392;2023-04-24T10:11:34;1.85;;;0.90;;
69951;SDS011;60406;48.408;13.392;2023-04-24T10:16:35;2.38;;;0.90;;
69951;SDS011;60406;48.408;13.392;2023-04-24T10:21:37;1.67;;;1.08;;
69951;SDS011;60406;48.408;13.392;2023-04-24T10:26:38;1.10;;;0.82;;
69951;SDS011;60406;48.408;13.392;2023-04-24T10:31:39;1.90;;;0.65;;
69951;SDS011;60406;48.408;13.392;2023-04-24T10:36:41;0.80;;;0.77;;
69951;SDS011;60406;48.408;13.392;2023-04-24T10:41:45;1.85;;;0.77;;
69951;SDS011;60406;48.408;13.392;2023-04-24T10:46:46;2.45;;;0.80;;
69951;SDS011;60406;48.408;13.392;2023-04-24T10:51:53;1.27;;;0.60;;
69951;SDS011;60406;48.408;13.392;2023-04-24T11:02:23;0.65;;;0.60;;
69951;SDS011;60406;48.408;13.392;2023-04-24T11:08:09;0.50;;;0.43;;
69951;SDS011;60406;48.408;13.392;2023-04-24T11:13:13;0.20;;;0.20;;
69951;SDS011;60406;48.408;13.392;2023-04-24T11:23:15;0.43;;;0.43;;
69951;SDS011;60406;48.408;13.392;2023-04-24T11:28:17;2.50;;;1.40;;
69951;SDS011;60406;48.408;13.392;2023-04-24T11:33:19;2.95;;;1.88;;
69951;SDS011;60406;48.408;13.392;2023-04-24T11:38:20;6.28;;;1.30;;
69951;SDS011;60406;48.408;13.392;2023-04-24T11:43:21;6.93;;;4.85;;
69951;SDS011;60406;48.408;13.392;2023-04-24T11:48:22;3.55;;;2.30;;
69951;SDS011;60406;48.408;13.392;2023-04-24T11:53:23;2.13;;;1.60;;
69951;SDS011;60406;48.408;13.392;2023-04-24T11:58:24;4.85;;;4.05;;
69951;SDS011;60406;48.408;13.392;2023-04-24T12:03:25;2.08;;;1.65;;
69951;SDS011;60406;48.408;13.392;2023-04-24T12:08:29;3.92;;;3.08;;
69951;SDS011;60406;48.408;13.392;2023-04-24T12:13:30;2.78;;;1.90;;
69951;SDS011;60406;48.408;13.392;2023-04-24T12:18:31;2.00;;;1.80;;
69951;SDS011;60406;48.408;13.392;2023-04-24T12:23:35;1.98;;;1.40;;
69951;SDS011;60406;48.408;13.392;2023-04-24T12:33:37;3.05;;;2.75;;
69951;SDS011;60406;48.408;13.392;2023-04-24T12:38:38;2.22;;;1.52;;
69951;SDS011;60406;48.408;13.392;2023-04-24T12:43:39;3.17;;;2.03;;
69951;SDS011;60406;48.408;13.392;2023-04-24T12:48:51;1.27;;;1.00;;
69951;SDS011;60406;48.408;13.392;2023-04-24T12:53:52;2.35;;;1.35;;
69951;SDS011;60406;48.408;13.392;2023-04-24T12:58:53;2.00;;;1.52;;
69951;SDS011;60406;48.408;13.392;2023-04-24T13:03:54;3.13;;;1.58;;
69951;SDS011;60406;48.408;13.392;2023-04-24T13:08:54;2.65;;;1.02;;
69951;SDS011;60406;48.408;13.392;2023-04-24T13:13:55;3.30;;;1.50;;
69951;SDS011;60406;48.408;13.392;2023-04-24T13:18:57;2.13;;;1.40;;
69951;SDS011;60406;48.408;13.392;2023-04-24T13:23:58;1.60;;;1.50;;
69951;SDS011;60406;48.408;13.392;2023-04-24T13:28:59;3.80;;;1.63;;
69951;SDS011;60406;48.408;13.392;2023-04-24T13:34:00;7.60;;;2.20;;
69951;SDS011;60406;48.408;13.392;2023-04-24T13:39:02;3.60;;;1.85;;
69951;SDS011;60406;48.408;13.392;2023-04-24T13:44:04;2.35;;;1.80;;
69951;SDS011;60406;48.408;13.392;2023-04-24T13:49:06;7.53;;;2.70;;
69951;SDS011;60406;48.408;13.392;2023-04-24T13:54:06;4.40;;;2.67;;
69951;SDS011;60406;48.408;13.392;2023-04-24T13:59:07;2.80;;;2.42;;
69951;SDS011;60406;48.408;13.392;2023-04-24T14:04:09;4.78;;;3.63;;
69951;SDS011;60406;48.408;13.392;2023-04-24T14:09:09;1.85;;;1.63;;
69951;SDS011;60406;48.408;13.392;2023-04-24T14:14:10;2.47;;;1.50;;
69951;SDS011;60406;48.408;13.392;2023-04-24T14:19:11;6.30;;;3.40;;
69951;SDS011;60406;48.408;13.392;2023-04-24T14:24:12;1.88;;;1.17;;
69951;SDS011;60406;48.408;13.392;2023-04-24T14:29:13;1.08;;;0.98;;
69951;SDS011;60406;48.408;13.392;2023-04-24T14:34:14;2.67;;;2.10;;
69951;SDS011;60406;48.408;13.392;2023-04-24T14:39:14;1.60;;;1.45;;
69951;SDS011;60406;48.408;13.392;2023-04-24T14:44:15;2.85;;;1.90;;
69951;SDS011;60406;48.408;13.392;2023-04-24T14:49:16;1.00;;;0.80;;
69951;SDS011;60406;48.408;13.392;2023-04-24T14:54:17;1.33;;;1.00;;
69951;SDS011;60406;48.408;13.392;2023-04-24T14:59:18;2.30;;;1.33;;
69951;SDS011;60406;48.408;13.392;2023-04-24T15:04:19;1.45;;;1.05;;
69951;SDS011;60406;48.408;13.392;2023-04-24T15:09:20;1.38;;;1.27;;
69951;SDS011;60406;48.408;13.392;2023-04-24T15:14:21;5.65;;;1.50;;
69951;SDS011;60406;48.408;13.392;2023-04-24T15:19:22;4.05;;;1.80;;
69951;SDS011;60406;48.408;13.392;2023-04-24T15:24:23;1.58;;;1.48;;
69951;SDS011;60406;48.408;13.392;2023-04-24T15:29:24;4.70;;;2.05;;
69951;SDS011;60406;48.408;13.392;2023-04-24T15:34:25;2.13;;;1.70;;
69951;SDS011;60406;48.408;13.392;2023-04-24T15:39:26;3.15;;;1.85;;
69951;SDS011;60406;48.408;13.392;2023-04-24T15:44:26;3.25;;;2.00;;
69951;SDS011;60406;48.408;13.392;2023-04-24T15:49:27;1.90;;;1.50;;
69951;SDS011;60406;48.408;13.392;2023-04-24T15:54:28;3.80;;;2.08;;
69951;SDS011;60406;48.408;13.392;2023-04-24T15:59:29;3.15;;;2.25;;
69951;SDS011;60406;48.408;13.392;2023-04-24T16:04:30;2.45;;;2.05;;
69951;SDS011;60406;48.408;13.392;2023-04-24T16:09:31;4.90;;;2.53;;
69951;SDS011;60406;48.408;13.392;2023-04-24T16:14:32;3.47;;;2.15;;
69951;SDS011;60406;48.408;13.392;2023-04-24T16:19:32;3.78;;;2.22;;
69951;SDS011;60406;48.408;13.392;2023-04-24T16:24:33;2.58;;;1.95;;
69951;SDS011;60406;48.408;13.392;2023-04-24T16:29:34;5.82;;;2.33;;
69951;SDS011;60406;48.408;13.392;2023-04-24T16:34:35;2.70;;;2.20;;
69951;SDS011;60406;48.408;13.392;2023-04-24T16:39:36;5.68;;;1.75;;
69951;SDS011;60406;48.408;13.392;2023-04-24T16:44:37;3.88;;;1.20;;
69951;SDS011;60406;48.408;13.392;2023-04-24T16:49:41;5.70;;;1.45;;
69951;SDS011;60406;48.408;13.392;2023-04-24T16:54:42;2.28;;;1.30;;
69951;SDS011;60406;48.408;13.392;2023-04-24T16:59:43;6.90;;;1.50;;
69951;SDS011;60406;48.408;13.392;2023-04-24T17:04:44;3.10;;;1.20;;
69951;SDS011;60406;48.408;13.392;2023-04-24T17:09:45;4.82;;;1.50;;
69951;SDS011;60406;48.408;13.392;2023-04-24T17:14:46;2.10;;;1.40;;
69951;SDS011;60406;48.408;13.392;2023-04-24T17:19:47;2.72;;;1.77;;
69951;SDS011;60406;48.408;13.392;2023-04-24T17:24:48;3.22;;;1.35;;
69951;SDS011;60406;48.408;13.392;2023-04-24T17:29:48;6.65;;;2.00;;
69951;SDS011;60406;48.408;13.392;2023-04-24T17:34:49;4.95;;;2.47;;
69951;SDS011;60406;48.408;13.392;2023-04-24T17:39:50;5.13;;;3.63;;
69951;SDS011;60406;48.408;13.392;2023-04-24T17:44:51;11.25;;;9.13;;
69951;SDS011;60406;48.408;13.392;2023-04-24T17:49:52;2.55;;;1.98;;
69951;SDS011;60406;48.408;13.392;2023-04-24T17:54:53;2.45;;;1.60;;
69951;SDS011;60406;48.408;13.392;2023-04-24T17:59:54;2.88;;;2.25;;
69951;SDS011;60406;48.408;13.392;2023-04-24T18:04:54;5.22;;;2.10;;
69951;SDS011;60406;48.408;13.392;2023-04-24T18:09:55;4.03;;;2.10;;
69951;SDS011;60406;48.408;13.392;2023-04-24T18:14:56;8.63;;;2.08;;
69951;SDS011;60406;48.408;13.392;2023-04-24T18:19:57;3.25;;;1.98;;
69951;SDS011;60406;48.408;13.392;2023-04-24T18:24:58;3.08;;;2.30;;
69951;SDS011;60406;48.408;13.392;2023-04-24T18:29:59;3.83;;;1.77;;
69951;SDS011;60406;48.408;13.392;2023-04-24T18:35:00;2.58;;;2.38;;
69951;SDS011;60406;48.408;13.392;2023-04-24T18:40:01;3.88;;;1.75;;
69951;SDS011;60406;48.408;13.392;2023-04-24T18:45:01;2.30;;;1.70;;
69951;SDS011;60406;48.408;13.392;2023-04-24T18:50:03;4.32;;;1.95;;
69951;SDS011;60406;48.408;13.392;2023-04-24T18:55:04;3.13;;;2.47;;
69951;SDS011;60406;48.408;13.392;2023-04-24T19:00:05;3.35;;;2.60;;
69951;SDS011;60406;48.408;13.392;2023-04-24T19:05:06;4.20;;;3.80;;
69951;SDS011;60406;48.408;13.392;2023-04-24T19:10:08;7.10;;;3.40;;
69951;SDS011;60406;48.408;13.392;2023-04-24T19:15:09;5.45;;;3.25;;
69951;SDS011;60406;48.408;13.392;2023-04-24T19:20:10;5.30;;;3.63;;
69951;SDS011;60406;48.408;13.392;2023-04-24T19:25:11;5.05;;;3.97;;
69951;SDS011;60406;48.408;13.392;2023-04-24T19:30:12;3.58;;;3.28;;
69951;SDS011;60406;48.408;13.392;2023-04-24T19:35:13;4.82;;;4.03;;
69951;SDS011;60406;48.408;13.392;2023-04-24T19:40:14;4.95;;;3.97;;
69951;SDS011;60406;48.408;13.392;2023-04-24T19:45:15;4.00;;;2.58;;
69951;SDS011;60406;48.408;13.392;2023-04-24T19:50:15;4.30;;;2.50;;
69951;SDS011;60406;48.408;13.392;2023-04-24T19:55:16;4.90;;;3.00;;
69951;SDS011;60406;48.408;13.392;2023-04-24T20:00:17;5.50;;;3.33;;
69951;SDS011;60406;48.408;13.392;2023-04-24T20:05:18;4.80;;;3.90;;
69951;SDS011;60406;48.408;13.392;2023-04-24T20:10:19;3.85;;;2.80;;
69951;SDS011;60406;48.408;13.392;2023-04-24T20:15:20;3.25;;;2.60;;
69951;SDS011;60406;48.408;13.392;2023-04-24T20:20:21;4.57;;;2.25;;
69951;SDS011;60406;48.408;13.392;2023-04-24T20:25:22;3.30;;;2.63;;
69951;SDS011;60406;48.408;13.392;2023-04-24T20:30:23;3.85;;;2.38;;
69951;SDS011;60406;48.408;13.392;2023-04-24T20:35:23;2.45;;;2.22;;
69951;SDS011;60406;48.408;13.392;2023-04-24T20:40:24;3.55;;;2.25;;
69951;SDS011;60406;48.408;13.392;2023-04-24T20:45:25;3.85;;;2.53;;
69951;SDS011;60406;48.408;13.392;2023-04-24T20:50:26;4.90;;;2.38;;
69951;SDS011;60406;48.408;13.392;2023-04-24T20:55:27;8.02;;;2.20;;
69951;SDS011;60406;48.408;13.392;2023-04-24T21:00:28;5.72;;;2.03;;
69951;SDS011;60406;48.408;13.392;2023-04-24T21:05:29;3.25;;;1.98;;
69951;SDS011;60406;48.408;13.392;2023-04-24T21:10:30;2.35;;;2.13;;
69951;SDS011;60406;48.408;13.392;2023-04-24T21:15:31;3.42;;;2.15;;
69951;SDS011;60406;48.408;13.392;2023-04-24T21:20:32;2.17;;;1.98;;
69951;SDS011;60406;48.408;13.392;2023-04-24T21:25:33;2.80;;;2.38;;
69951;SDS011;60406;48.408;13.392;2023-04-24T21:30:35;2.40;;;2.00;;
69951;SDS011;60406;48.408;13.392;2023-04-24T21:35:36;3.85;;;2.47;;
69951;SDS011;60406;48.408;13.392;2023-04-24T21:40:37;7.38;;;2.22;;
69951;SDS011;60406;48.408;13.392;2023-04-24T21:45:38;4.45;;;2.45;;
69951;SDS011;60406;48.408;13.392;2023-04-24T21:50:39;2.60;;;2.40;;
69951;SDS011;60406;48.408;13.392;2023-04-24T21:55:40;3.03;;;2.30;;
69951;SDS011;60406;48.408;13.392;2023-04-24T22:00:41;2.80;;;2.50;;
69951;SDS011;60406;48.408;13.392;2023-04-24T22:05:42;4.00;;;2.92;;
69951;SDS011;60406;48.408;13.392;2023-04-24T22:10:42;4.82;;;2.83;;
69951;SDS011;60406;48.408;13.392;2023-04-24T22:15:43;7.70;;;2.97;;
69951;SDS011;60406;48.408;13.392;2023-04-24T22:20:44;3.40;;;2.53;;
69951;SDS011;60406;48.408;13.392;2023-04-24T22:25:45;4.07;;;2.70;;
69951;SDS011;60406;48.408;13.392;2023-04-24T22:30:46;5.70;;;2.75;;
69951;SDS011;60406;48.408;13.392;2023-04-24T22:35:47;4.47;;;2.65;;
69951;SDS011;60406;48.408;13.392;2023-04-24T22:40:48;7.13;;;3.03;;
69951;SDS011;60406;48.408;13.392;2023-04-24T22:45:48;6.90;;;3.15;;
69951;SDS011;60406;48.408;13.392;2023-04-24T22:50:50;6.93;;;4.18;;
69951;SDS011;60406;48.408;13.392;2023-04-24T22:55:51;4.88;;;3.60;;
69951;SDS011;60406;48.408;13.392;2023-04-24T23:00:51;5.07;;;3.65;;
69951;SDS011;60406;48.408;13.392;2023-04-24T23:05:52;7.80;;;2.70;;
69951;SDS011;60406;48.408;13.392;2023-04-24T23:10:53;3.17;;;2.20;;
69951;SDS011;60406;48.408;13.392;2023-04-24T23:15:54;8.57;;;3.67;;
69951;SDS011;60406;48.408;13.392;2023-04-24T23:20:55;7.15;;;3.58;;
69951;SDS011;60406;48.408;13.392;2023-04-24T23:25:56;7.70;;;4.22;;
69951;SDS011;60406;48.408;13.392;2023-04-24T23:30:57;5.32;;;3.05;;
69951;SDS011;60406;48.408;13.392;2023-04-24T23:35:58;4.75;;;3.08;;
69951;SDS011;60406;48.408;13.392;2023-04-24T23:40:59;6.70;;;3.30;;
69951;SDS011;60406;48.408;13.392;2023-04-24T23:46:00;4.15;;;2.90;;
69951;SDS011;60406;48.408;13.392;2023-04-24T23:51:01;4.90;;;3.00;;
69951;SDS011;60406;48.408;13.392;2023-04-24T23:56:02;5.10;;;3.38;;
